Time;durP1;ratioP1;P1;durP2;ratioP2;P2;SDS_P1;SDS_P2;PMS_P1;PMS_P2;Temp;Humidity;BMP_temperature;BMP_pressure;BME280_temperature;BME280_humidity;BME280_pressure;Samples;Min_cycle;Max_cycle;Signal;HPM_P1;HPM_P2
2021/11/24 00:02:06;;;;;;;;;5.50;4.75;;;;;21.12;32.90;102081.81;5098231;27;45300;-49
2021/11/24 00:04:32;;;;;;;;;4.75;3.50;;;;;21.13;32.93;102084.41;5098312;27;45524;-54
2021/11/24 00:06:57;;;;;;;;;4.75;4.00;;;;;21.16;33.18;102084.28;5097721;27;46373;-51
2021/11/24 00:09:22;;;;;;;;;5.25;5.25;;;;;21.17;32.86;102066.69;5098008;27;45231;-51
2021/11/24 00:11:48;;;;;;;;;5.75;4.75;;;;;21.19;32.68;102059.59;5098266;27;45361;-50
2021/11/24 00:14:14;;;;;;;;;4.50;4.50;;;;;21.20;32.89;102063.06;5097846;27;46080;-51
2021/11/24 00:16:40;;;;;;;;;4.00;4.00;;;;;21.22;32.71;102061.22;5097750;27;45269;-47
2021/11/24 00:19:05;;;;;;;;;4.00;4.00;;;;;21.21;33.36;102055.13;5096746;27;45490;-49
2021/11/24 00:21:30;;;;;;;;;6.75;6.75;;;;;21.21;32.86;102060.38;5097969;27;45273;-54
2021/11/24 00:23:56;;;;;;;;;3.00;3.00;;;;;21.24;32.71;102060.25;5098089;27;45428;-52
2021/11/24 00:26:21;;;;;;;;;5.50;4.75;;;;;21.24;32.90;102065.53;5097418;27;46387;-49
2021/11/24 00:28:47;;;;;;;;;8.75;5.25;;;;;21.24;32.92;102067.31;5098022;27;45393;-60
2021/11/24 00:31:12;;;;;;;;;6.75;4.75;;;;;21.24;32.85;102064.69;5096397;27;45406;-58
2021/11/24 00:33:37;;;;;;;;;5.25;5.00;;;;;21.26;32.75;102063.69;5097877;27;45531;-56
2021/11/24 00:36:03;;;;;;;;;5.25;3.25;;;;;21.25;33.02;102061.97;5097421;27;45469;-58
2021/11/24 00:38:29;;;;;;;;;5.00;5.00;;;;;21.25;33.14;102056.69;5097495;27;45320;-54
2021/11/24 00:40:55;;;;;;;;;4.75;4.75;;;;;21.25;32.97;102050.56;5097460;27;45260;-49
2021/11/24 00:43:21;;;;;;;;;5.75;5.75;;;;;21.26;32.89;102050.50;5098076;27;45441;-48
2021/11/24 00:45:47;;;;;;;;;7.25;4.25;;;;;21.26;32.85;102054.94;5097500;27;46369;-45
2021/11/24 00:48:13;;;;;;;;;6.75;5.50;;;;;21.26;32.89;102052.28;5097300;27;45813;-49
2021/11/24 00:50:38;;;;;;;;;4.75;4.75;;;;;21.26;32.74;102053.13;5097488;27;45451;-50
2021/11/24 00:53:03;;;;;;;;;5.75;4.50;;;;;21.24;32.89;102054.97;5097547;27;45260;-47
2021/11/24 00:55:29;;;;;;;;;6.00;5.75;;;;;21.25;32.76;102055.84;5097041;27;45988;-55
2021/11/24 00:57:55;;;;;;;;;5.25;4.75;;;;;21.24;32.35;102047.06;5097318;27;45235;-57
2021/11/24 01:00:21;;;;;;;;;4.25;4.25;;;;;21.23;33.01;102037.44;5096355;27;45520;-49
2021/11/24 01:02:46;;;;;;;;;6.00;6.00;;;;;21.23;33.25;102031.31;5097518;27;45580;-55
2021/11/24 01:05:12;;;;;;;;;5.00;5.00;;;;;21.24;32.71;102036.50;5097161;27;45473;-59
2021/11/24 01:07:38;;;;;;;;;6.00;6.00;;;;;21.24;33.08;102022.50;5097044;27;45345;-57
2021/11/24 01:10:05;;;;;;;;;7.75;5.50;;;;;21.21;32.91;102023.47;5097302;27;45550;-54
2021/11/24 01:12:31;;;;;;;;;5.50;4.00;;;;;21.20;33.18;102032.31;5097442;27;45271;-59
2021/11/24 01:14:57;;;;;;;;;4.00;4.00;;;;;21.20;32.79;102029.66;5096953;27;45412;-51
2021/11/24 01:17:22;;;;;;;;;5.00;5.00;;;;;21.18;33.00;102026.22;5097245;27;45227;-52
2021/11/24 01:19:48;;;;;;;;;6.00;5.50;;;;;21.18;32.74;102023.59;5097019;27;45216;-54
2021/11/24 01:22:13;;;;;;;;;5.00;5.00;;;;;21.15;33.11;102024.56;5097206;27;45705;-55
2021/11/24 01:24:38;;;;;;;;;4.00;4.00;;;;;21.14;32.89;102024.63;5112701;27;47131;-49
2021/11/24 01:27:04;;;;;;;;;6.50;5.00;;;;;21.14;32.85;102019.34;5096759;27;45250;-54
2021/11/24 01:29:30;;;;;;;;;8.00;6.00;;;;;21.13;33.14;102020.25;5096979;27;45394;-54
2021/11/24 01:31:55;;;;;;;;;4.00;4.00;;;;;21.12;32.69;102023.81;5099002;27;45564;-47
2021/11/24 01:34:20;;;;;;;;;4.50;4.00;;;;;21.10;32.98;102009.84;5100626;27;45497;-46
2021/11/24 01:36:46;;;;;;;;;3.25;3.25;;;;;21.06;32.99;102006.47;5099103;27;45384;-51
2021/11/24 01:39:11;;;;;;;;;6.00;5.00;;;;;21.08;33.01;102011.69;5100445;27;45508;-48
2021/11/24 01:41:37;;;;;;;;;5.00;5.00;;;;;21.08;32.97;102009.06;5100534;27;45429;-48
2021/11/24 01:44:02;;;;;;;;;5.25;5.25;;;;;21.09;32.94;102008.13;5100017;27;45403;-49
2021/11/24 01:46:29;;;;;;;;;5.00;5.00;;;;;21.07;33.37;101999.44;5100124;27;45593;-48
2021/11/24 01:48:54;;;;;;;;;6.25;4.25;;;;;21.09;33.40;101997.59;5100756;27;45440;-47
2021/11/24 01:51:20;;;;;;;;;5.75;5.75;;;;;21.11;33.29;102001.03;5100842;27;45557;-52
2021/11/24 01:53:46;;;;;;;;;4.25;4.25;;;;;21.12;33.38;101997.44;5099981;27;46145;-49
2021/11/24 01:56:12;;;;;;;;;5.25;5.25;;;;;21.15;33.50;101998.22;5098817;27;45356;-47
2021/11/24 01:58:39;;;;;;;;;4.00;4.00;;;;;21.17;33.13;101987.59;5100266;27;45383;-47
2021/11/24 02:01:05;;;;;;;;;4.50;4.50;;;;;21.20;32.93;101989.25;5100386;27;45276;-50
2021/11/24 02:03:31;;;;;;;;;6.75;3.25;;;;;21.21;33.05;101986.56;5099929;27;45509;-46
2021/11/24 02:05:58;;;;;;;;;6.25;6.25;;;;;21.18;33.04;101981.41;5099687;27;45427;-48
2021/11/24 02:08:23;;;;;;;;;6.00;6.00;;;;;21.26;33.23;101986.38;5100126;27;45424;-49
2021/11/24 02:10:49;;;;;;;;;4.50;4.00;;;;;21.27;33.21;101983.66;5100177;27;45485;-50
2021/11/24 02:13:15;;;;;;;;;6.00;5.00;;;;;21.29;33.39;101984.47;5099847;27;45444;-50
2021/11/24 02:15:40;;;;;;;;;5.75;4.75;;;;;21.29;33.42;101981.84;5099836;27;45489;-49
2021/11/24 02:18:07;;;;;;;;;6.25;4.75;;;;;21.34;33.32;101980.75;5100007;27;45423;-50
2021/11/24 02:20:44;;;;;;;;;7.25;4.50;;;;;21.36;33.56;101981.56;5100063;27;45371;-53
2021/11/24 02:23:13;;;;;;;;;8.75;5.00;;;;;21.38;33.24;101979.72;5099528;27;47234;-50
2021/11/24 02:25:41;;;;;;;;;4.25;4.25;;;;;21.39;33.10;101973.53;5098241;27;45945;-53
2021/11/24 02:28:07;;;;;;;;;5.75;4.50;;;;;21.40;33.44;101975.25;5099862;27;45416;-51
2021/11/24 02:30:33;;;;;;;;;5.00;4.00;;;;;21.42;33.49;101969.00;5099858;27;45194;-56
2021/11/24 02:32:59;;;;;;;;;6.00;5.00;;;;;21.42;32.80;101963.72;5099378;27;46260;-53
2021/11/24 02:35:24;;;;;;;;;4.75;4.75;;;;;21.43;32.93;101960.16;5099792;27;45261;-54
2021/11/24 02:37:50;;;;;;;;;4.00;4.00;;;;;21.44;33.19;101968.94;5099734;27;45271;-58
2021/11/24 02:40:15;;;;;;;;;5.00;5.00;;;;;21.45;33.08;101968.88;5099708;27;45321;-59
2021/11/24 02:42:42;;;;;;;;;5.25;4.75;;;;;21.45;33.35;101962.72;5098378;27;46266;-55
2021/11/24 02:45:08;;;;;;;;;7.00;3.50;;;;;21.46;33.06;101949.50;5098059;27;45370;-60
2021/11/24 02:47:34;;;;;;;;;6.25;5.25;;;;;21.46;33.05;101946.84;5099341;27;45417;-59
2021/11/24 02:50:03;;;;;;;;;4.75;4.00;;;;;21.47;32.98;101952.97;5099476;27;45551;-48
2021/11/24 02:52:30;;;;;;;;;4.25;4.25;;;;;21.48;33.06;101946.78;5097813;27;47280;-60
2021/11/24 02:54:58;;;;;;;;;5.00;3.00;;;;;21.51;33.14;101948.44;5099598;27;45387;-61
2021/11/24 02:57:36;;;;;;;;;5.00;5.00;;;;;21.50;33.19;101947.56;5099548;27;45408;-60
2021/11/24 03:00:21;;;;;;;;;4.00;4.00;;;;;21.51;33.10;101930.84;5099553;27;45310;-58
2021/11/24 03:02:47;;;;;;;;;4.75;4.75;;;;;21.52;33.09;101931.69;5099263;27;45416;-52
2021/11/24 03:05:16;;;;;;;;;5.50;5.00;;;;;21.53;33.18;101939.53;5097992;27;45833;-49
2021/11/24 03:07:42;;;;;;;;;4.00;4.00;;;;;21.53;33.51;101931.63;5098869;27;45353;-55
2021/11/24 03:10:08;;;;;;;;;4.25;4.25;;;;;21.54;33.18;101930.72;5099244;27;45362;-48
2021/11/24 03:12:36;;;;;;;;;3.75;3.75;;;;;21.55;33.28;101915.72;5098953;27;46330;-50
2021/11/24 03:15:04;;;;;;;;;5.50;4.50;;;;;21.53;32.96;101894.72;5098842;27;45908;-50
2021/11/24 03:17:29;;;;;;;;;4.50;4.50;;;;;21.54;33.20;101904.34;5099034;27;45226;-50
2021/11/24 03:19:57;;;;;;;;;5.50;4.75;;;;;21.58;33.32;101911.19;5099362;27;45219;-50
2021/11/24 03:22:23;;;;;;;;;6.00;4.75;;;;;21.59;33.28;101905.00;5098748;27;46246;-52
2021/11/24 03:24:55;;;;;;;;;4.00;4.00;;;;;21.60;33.36;101906.72;5098552;27;45871;-50
2021/11/24 03:27:25;;;;;;;;;3.75;3.75;;;;;21.60;33.13;101904.09;5098697;27;45472;-53
2021/11/24 03:29:51;;;;;;;;;4.00;4.00;;;;;21.59;32.99;101897.09;5099038;27;45157;-51
2021/11/24 03:32:16;;;;;;;;;4.00;3.50;;;;;21.61;33.28;101895.25;5114358;27;48552;-53
2021/11/24 03:34:42;;;;;;;;;5.75;4.00;;;;;21.60;33.13;101898.81;5098697;27;45232;-51
2021/11/24 03:37:07;;;;;;;;;3.00;3.00;;;;;21.60;33.18;101901.44;5098627;27;45314;-58
2021/11/24 03:39:33;;;;;;;;;5.00;4.50;;;;;21.61;33.13;101904.94;5098816;27;45353;-57
2021/11/24 03:41:58;;;;;;;;;3.75;3.75;;;;;21.59;33.22;101891.81;5098675;27;45459;-61
2021/11/24 03:44:23;;;;;;;;;6.25;5.00;;;;;21.58;33.30;101892.72;5097212;27;45404;-62
2021/11/24 03:46:49;;;;;;;;;4.00;4.00;;;;;21.59;33.26;101883.06;5098626;27;45389;-59
2021/11/24 03:49:14;;;;;;;;;5.00;5.00;;;;;21.57;33.28;101888.34;5098751;27;45360;-62
2021/11/24 03:51:39;;;;;;;;;3.25;3.00;;;;;21.54;32.98;101882.34;5114144;27;46408;-57
2021/11/24 03:54:05;;;;;;;;;4.00;4.00;;;;;21.55;32.79;101881.44;5098311;27;45347;-59
2021/11/24 03:56:30;;;;;;;;;4.00;4.00;;;;;21.53;33.05;101876.25;5098817;27;45322;-61
2021/11/24 03:58:55;;;;;;;;;4.00;3.25;;;;;21.53;33.32;101868.31;5098574;27;45624;-56
2021/11/24 04:01:21;;;;;;;;;4.25;4.25;;;;;21.50;33.47;101870.25;5098231;27;45833;-59
2021/11/24 04:03:47;;;;;;;;;6.00;5.00;;;;;21.50;33.03;101871.09;5098100;27;45314;-59
2021/11/24 04:06:12;;;;;;;;;5.00;4.00;;;;;21.48;33.65;101867.66;5097961;27;45370;-56
2021/11/24 04:08:38;;;;;;;;;6.00;5.00;;;;;21.51;33.05;101869.28;5114273;27;45464;-56
2021/11/24 04:11:03;;;;;;;;;4.25;4.25;;;;;21.47;33.31;101871.22;5097677;27;46472;-62
2021/11/24 04:13:29;;;;;;;;;7.00;5.75;;;;;21.46;33.43;101867.72;5098291;27;45313;-60
2021/11/24 04:15:54;;;;;;;;;5.25;3.50;;;;;21.47;33.33;101872.09;5097950;27;45374;-54
2021/11/24 04:18:20;;;;;;;;;5.75;4.00;;;;;21.47;33.01;101860.66;5098184;27;45459;-57
2021/11/24 04:20:45;;;;;;;;;6.50;6.50;;;;;21.46;33.22;101865.09;5097815;27;45292;-57
2021/11/24 04:23:11;;;;;;;;;5.25;4.50;;;;;21.45;33.02;101858.09;5097836;27;45369;-51
2021/11/24 04:25:36;;;;;;;;;5.25;5.00;;;;;21.44;33.46;101855.53;5097878;27;45354;-48
2021/11/24 04:28:02;;;;;;;;;5.25;4.00;;;;;21.40;33.18;101851.31;5098350;27;45441;-50
2021/11/24 04:30:27;;;;;;;;;5.00;4.00;;;;;21.39;33.10;101853.06;5097707;27;45359;-47
2021/11/24 04:32:53;;;;;;;;;7.25;4.00;;;;;21.36;33.19;101847.94;5097717;27;45322;-49
2021/11/24 04:35:19;;;;;;;;;6.00;5.75;;;;;21.34;33.29;101843.66;5097650;27;45660;-54
2021/11/24 04:37:44;;;;;;;;;4.25;4.25;;;;;21.34;33.43;101839.25;5097919;27;45169;-57
2021/11/24 04:40:11;;;;;;;;;5.00;5.00;;;;;21.32;33.24;101835.81;5097620;27;46195;-51
2021/11/24 04:42:38;;;;;;;;;4.00;4.00;;;;;21.28;33.13;101829.81;5097603;27;45827;-52
2021/11/24 04:45:04;;;;;;;;;4.00;4.00;;;;;21.28;33.40;101842.13;5097844;27;45447;-50
2021/11/24 04:47:29;;;;;;;;;4.00;4.00;;;;;21.27;32.99;101833.38;5098083;27;45681;-50
2021/11/24 04:49:54;;;;;;;;;4.25;4.00;;;;;21.25;33.09;101829.94;5097600;27;45325;-56
2021/11/24 04:52:20;;;;;;;;;5.00;5.00;;;;;21.25;33.20;101839.66;5097507;27;45281;-61
2021/11/24 04:54:45;;;;;;;;;5.75;5.00;;;;;21.24;33.27;101836.13;5095845;27;45778;-53
2021/11/24 04:57:11;;;;;;;;;5.25;5.25;;;;;21.23;33.08;101839.69;5097657;27;45614;-53
2021/11/24 04:59:37;;;;;;;;;6.00;4.25;;;;;21.21;33.59;101838.91;5097135;27;46286;-52
2021/11/24 05:02:02;;;;;;;;;7.00;6.00;;;;;21.19;33.41;101824.94;5097450;27;45404;-58
2021/11/24 05:04:28;;;;;;;;;5.00;5.00;;;;;21.20;33.31;101828.41;5097336;27;45334;-56
2021/11/24 05:06:54;;;;;;;;;4.00;4.00;;;;;21.19;33.48;101832.84;5096631;27;45270;-57
2021/11/24 05:09:19;;;;;;;;;6.00;5.25;;;;;21.21;33.71;101827.50;5097291;27;45610;-60
2021/11/24 05:11:45;;;;;;;;;10.25;9.00;;;;;21.20;33.13;101829.28;5097026;27;45225;-62
2021/11/24 05:14:16;;;;;;;;;8.00;7.00;;;;;21.20;33.23;101826.66;5097243;27;45450;-58
2021/11/24 05:16:45;;;;;;;;;8.75;8.50;;;;;21.20;33.76;101831.94;5097379;27;45298;-57
2021/11/24 05:19:16;;;;;;;;;6.00;4.75;;;;;21.23;32.99;101830.94;5095683;27;46221;-57
2021/11/24 05:21:42;;;;;;;;;9.00;6.50;;;;;21.23;33.43;101826.50;5097120;27;45732;-54
2021/11/24 05:24:07;;;;;;;;;5.75;5.00;;;;;21.27;33.25;101832.53;5097106;27;45175;-55
2021/11/24 05:26:35;;;;;;;;;6.50;5.25;;;;;21.29;33.19;101831.53;5097364;27;45257;-53
2021/11/24 05:29:01;;;;;;;;;7.25;5.50;;;;;21.30;33.50;101833.25;5097184;27;46109;-52
2021/11/24 05:31:26;;;;;;;;;5.25;4.75;;;;;21.31;33.17;101832.34;5096873;27;45413;-49
2021/11/24 05:33:51;;;;;;;;;7.00;7.00;;;;;21.33;32.88;101826.97;5096995;27;45403;-55
2021/11/24 05:36:17;;;;;;;;;7.00;7.00;;;;;21.35;33.44;101826.91;5097042;27;45393;-49
2021/11/24 05:38:44;;;;;;;;;9.00;7.75;;;;;21.36;33.12;101825.97;5096575;27;46517;-49
2021/11/24 05:41:09;;;;;;;;;6.50;5.50;;;;;21.35;33.24;101825.13;5111751;27;46606;-54
2021/11/24 05:43:35;;;;;;;;;5.75;5.75;;;;;21.36;33.06;101818.94;5097168;27;45707;-59
2021/11/24 05:46:25;;;;;;;;;5.00;4.25;;;;;21.36;32.66;101815.44;5096730;27;45342;-51
2021/11/24 05:48:50;;;;;;;;;7.00;7.00;;;;;21.35;33.19;101801.41;5095272;27;47350;-54
2021/11/24 05:51:16;;;;;;;;;7.25;6.00;;;;;21.34;33.23;101796.19;5096465;27;45418;-51
2021/11/24 05:53:41;;;;;;;;;7.25;7.00;;;;;21.35;32.97;101800.53;5096585;27;45414;-48
2021/11/24 05:56:07;;;;;;;;;6.75;5.75;;;;;21.35;33.36;101797.91;5097078;27;45306;-54
2021/11/24 05:58:32;;;;;;;;;7.00;6.00;;;;;21.35;33.03;101789.97;5096747;27;45980;-48
2021/11/24 06:00:58;;;;;;;;;7.00;5.50;;;;;21.34;33.13;101798.81;5096381;27;45271;-49
2021/11/24 06:03:23;;;;;;;;;7.00;6.25;;;;;21.36;32.99;101794.34;5096502;27;45424;-54
2021/11/24 06:05:49;;;;;;;;;6.25;5.75;;;;;21.35;33.12;101795.25;5096339;27;45530;-49
2021/11/24 06:08:14;;;;;;;;;6.25;6.00;;;;;21.33;33.23;101794.50;5096485;27;45704;-51
2021/11/24 06:10:40;;;;;;;;;5.50;5.25;;;;;21.33;33.06;101795.34;5096508;27;45314;-55
2021/11/24 06:13:05;;;;;;;;;6.00;4.25;;;;;21.34;33.17;101796.19;5096781;27;45327;-49
2021/11/24 06:15:31;;;;;;;;;6.00;5.00;;;;;21.32;33.27;101783.06;5095356;27;45624;-51
2021/11/24 06:17:57;;;;;;;;;5.00;5.00;;;;;21.28;33.26;101784.13;5097598;27;45377;-56
2021/11/24 06:20:22;;;;;;;;;5.50;5.50;;;;;21.28;33.21;101785.00;5099777;27;45243;-56
2021/11/24 06:22:49;;;;;;;;;5.75;5.75;;;;;21.27;33.39;101785.91;5100012;27;45301;-54
2021/11/24 06:25:15;;;;;;;;;6.50;5.00;;;;;21.27;33.39;101780.63;5099906;27;45456;-57
2021/11/24 06:27:42;;;;;;;;;5.75;5.25;;;;;21.27;33.00;101785.06;5099530;27;46345;-57
2021/11/24 06:30:10;;;;;;;;;5.50;5.50;;;;;21.26;33.38;101786.84;5099943;27;45811;-59
2021/11/24 06:32:35;;;;;;;;;8.00;5.75;;;;;21.25;32.81;101784.28;5100109;27;45570;-54
2021/11/24 06:35:01;;;;;;;;;6.75;5.00;;;;;21.24;32.79;101783.41;5099746;27;45190;-52
2021/11/24 06:37:26;;;;;;;;;6.00;6.00;;;;;21.21;33.39;101778.28;5099628;27;45356;-59
2021/11/24 06:39:51;;;;;;;;;5.25;4.75;;;;;21.21;33.28;101778.28;5098312;27;45520;-57
2021/11/24 06:42:17;;;;;;;;;5.00;5.00;;;;;21.19;33.55;101784.53;5099640;27;45245;-51
2021/11/24 06:44:42;;;;;;;;;3.00;3.00;;;;;21.15;33.50;101778.53;5099857;27;45490;-54
2021/11/24 06:47:08;;;;;;;;;7.75;6.00;;;;;21.17;33.30;101780.16;5099611;27;46274;-52
2021/11/24 06:49:33;;;;;;;;;7.00;7.00;;;;;21.13;32.92;101778.59;5099444;27;45322;-53
2021/11/24 06:51:59;;;;;;;;;9.50;8.00;;;;;21.13;33.06;101775.09;5099503;27;45342;-52
2021/11/24 06:54:24;;;;;;;;;5.00;5.00;;;;;21.08;33.07;101763.91;5099654;27;45506;-52
2021/11/24 06:56:50;;;;;;;;;8.00;6.50;;;;;21.05;33.48;101769.31;5099235;27;45396;-53
2021/11/24 06:59:16;;;;;;;;;4.50;4.50;;;;;21.04;32.97;101762.31;5099428;27;45339;-49
2021/11/24 07:01:42;;;;;;;;;6.25;5.00;;;;;21.01;33.25;101758.88;5097977;27;45601;-50
2021/11/24 07:04:07;;;;;;;;;5.50;4.00;;;;;21.01;33.03;101760.69;5099909;27;45552;-52
2021/11/24 07:06:33;;;;;;;;;5.50;5.50;;;;;21.00;32.94;101761.59;5098855;27;45491;-51
2021/11/24 07:08:59;;;;;;;;;6.00;6.00;;;;;20.99;33.42;101767.78;5099163;27;45398;-52
2021/11/24 07:11:30;;;;;;;;;4.50;4.50;;;;;20.93;33.61;101761.00;5099220;27;45293;-55
2021/11/24 07:13:56;;;;;;;;;4.75;4.75;;;;;20.95;33.63;101769.69;5099429;27;45325;-54
2021/11/24 07:16:21;;;;;;;;;6.00;5.00;;;;;20.95;33.46;101769.69;5097631;27;48482;-47
2021/11/24 07:18:46;;;;;;;;;6.50;6.25;;;;;20.93;33.66;101766.28;5098792;27;45477;-48
2021/11/24 07:21:12;;;;;;;;;6.00;6.00;;;;;20.93;33.80;101761.00;5098987;27;45414;-53
2021/11/24 07:23:38;;;;;;;;;6.50;5.00;;;;;20.93;33.57;101761.00;5099366;27;45585;-53
2021/11/24 07:26:03;;;;;;;;;6.75;6.75;;;;;20.90;34.01;101761.13;5098605;27;45394;-52
2021/11/24 07:28:28;;;;;;;;;7.00;6.00;;;;;20.88;33.81;101757.72;5098356;27;45417;-55
2021/11/24 07:30:56;;;;;;;;;5.75;4.50;;;;;20.87;34.11;101761.28;5098804;27;45486;-52
2021/11/24 07:33:22;;;;;;;;;5.75;5.00;;;;;20.85;33.56;101752.56;5099053;27;45647;-55
2021/11/24 07:35:47;;;;;;;;;9.25;6.75;;;;;20.84;34.05;101745.59;5098595;27;46486;-52
2021/11/24 07:38:12;;;;;;;;;8.00;6.00;;;;;20.83;34.14;101751.78;5099023;27;45220;-52
2021/11/24 07:40:39;;;;;;;;;7.00;6.00;;;;;20.81;33.68;101754.47;5099011;27;45346;-51
2021/11/24 07:43:05;;;;;;;;;6.25;5.25;;;;;20.81;34.06;101750.97;5098924;27;45629;-49
2021/11/24 07:45:31;;;;;;;;;5.75;4.50;;;;;20.79;33.56;101747.53;5097104;27;45574;-52
2021/11/24 07:47:56;;;;;;;;;7.00;5.25;;;;;20.77;34.02;101733.59;5098300;27;45460;-51
2021/11/24 07:50:22;;;;;;;;;6.00;4.50;;;;;20.63;34.00;101716.56;5098554;27;45287;-49
2021/11/24 07:52:47;;;;;;;;;5.25;5.00;;;;;20.74;34.14;101739.84;5098722;27;45389;-49
2021/11/24 07:55:12;;;;;;;;;7.75;6.50;;;;;20.75;33.89;101740.72;5098387;27;46548;-53
2021/11/24 07:57:38;;;;;;;;;6.00;6.00;;;;;20.73;33.68;101742.50;5098441;27;45397;-53
2021/11/24 08:00:05;;;;;;;;;5.50;4.00;;;;;20.70;33.66;101749.63;5098431;27;45375;-54
2021/11/24 08:02:30;;;;;;;;;5.00;5.00;;;;;20.72;33.59;101752.22;5098375;27;45342;-49
2021/11/24 08:04:56;;;;;;;;;4.00;4.00;;;;;20.70;34.05;101757.53;5098002;27;45587;-53
2021/11/24 08:07:21;;;;;;;;;6.25;5.00;;;;;20.70;34.06;101749.63;5097948;27;45220;-53
2021/11/24 08:09:46;;;;;;;;;4.25;4.00;;;;;20.66;34.00;101750.69;5098321;27;45219;-47
2021/11/24 08:12:12;;;;;;;;;4.00;4.00;;;;;20.67;33.87;101748.88;5098551;27;45271;-49
2021/11/24 08:14:37;;;;;;;;;5.75;4.50;;;;;20.69;34.11;101757.59;5097989;27;45514;-50
2021/11/24 08:17:04;;;;;;;;;7.00;6.00;;;;;20.68;33.50;101751.44;5097787;27;45353;-47
2021/11/24 08:19:29;;;;;;;;;8.00;6.50;;;;;20.68;33.99;101746.19;5098088;27;45301;-47
2021/11/24 08:21:54;;;;;;;;;7.50;6.00;;;;;20.66;33.67;101737.50;5113960;27;45330;-47
2021/11/24 08:24:21;;;;;;;;;7.50;7.50;;;;;20.66;33.44;101747.16;5097580;27;48354;-47
2021/11/24 08:26:47;;;;;;;;;8.25;7.25;;;;;20.64;33.89;101749.88;5097576;27;45769;-50
2021/11/24 08:29:12;;;;;;;;;6.75;6.75;;;;;20.62;33.83;101746.44;5098102;27;45386;-49
2021/11/24 08:31:41;;;;;;;;;5.25;5.25;;;;;20.61;34.10;101750.00;5098007;27;45627;-51
2021/11/24 08:34:08;;;;;;;;;7.00;7.00;;;;;20.59;33.78;101743.94;5097715;27;45552;-52
2021/11/24 08:36:34;;;;;;;;;7.00;6.50;;;;;20.56;34.13;101741.41;5097808;27;45754;-50
2021/11/24 08:38:59;;;;;;;;;5.50;4.50;;;;;20.54;33.63;101738.00;5097913;27;45303;-53
2021/11/24 08:41:25;;;;;;;;;5.00;5.00;;;;;20.52;33.55;101731.94;5095561;27;45245;-52
2021/11/24 08:43:50;;;;;;;;;7.00;6.00;;;;;20.49;34.04;101732.94;5097221;27;45464;-52
2021/11/24 08:46:16;;;;;;;;;6.00;5.75;;;;;20.50;34.01;101736.41;5097811;27;45668;-52
2021/11/24 08:48:41;;;;;;;;;8.50;6.75;;;;;20.49;33.86;101734.69;5096511;27;45459;-53
2021/11/24 08:51:07;;;;;;;;;7.00;6.00;;;;;20.48;33.60;101739.13;5097703;27;45287;-52
2021/11/24 08:53:32;;;;;;;;;4.75;4.75;;;;;20.48;33.63;101738.25;5097258;27;45390;-51
2021/11/24 08:55:58;;;;;;;;;7.00;5.00;;;;;20.48;33.80;101730.34;5097229;27;45367;-51
2021/11/24 08:58:24;;;;;;;;;5.25;2.00;;;;;20.46;33.61;101730.41;5096150;27;45440;-49
2021/11/24 09:00:50;;;;;;;;;7.00;7.00;;;;;20.46;33.70;101721.66;5097610;27;45619;-51
2021/11/24 09:03:16;;;;;;;;;4.25;4.25;;;;;20.43;34.29;101717.38;5097485;27;46566;-52
2021/11/24 09:05:42;;;;;;;;;5.25;5.00;;;;;20.43;33.96;101713.91;5097448;27;45790;-54
2021/11/24 09:08:08;;;;;;;;;8.25;6.25;;;;;20.43;33.56;101709.47;5097266;27;45335;-54
2021/11/24 09:10:34;;;;;;;;;6.00;6.00;;;;;20.42;33.55;101702.50;5097394;27;45294;-53
2021/11/24 09:13:00;;;;;;;;;6.50;5.50;;;;;20.41;33.49;101699.94;5096998;27;47247;-53
2021/11/24 09:15:26;;;;;;;;;6.25;6.25;;;;;20.39;33.67;101692.94;5095687;27;45227;-56
2021/11/24 09:17:52;;;;;;;;;7.00;7.00;;;;;20.38;33.66;101701.75;5097227;27;45308;-51
2021/11/24 09:20:18;;;;;;;;;5.25;4.50;;;;;20.38;33.38;101696.50;5097372;27;45441;-52
2021/11/24 09:22:46;;;;;;;;;7.25;5.00;;;;;20.37;33.66;101694.78;5097215;27;46649;-52
2021/11/24 09:25:16;;;;;;;;;4.75;4.75;;;;;20.37;34.00;101688.69;5096861;27;45801;-48
2021/11/24 09:27:47;;;;;;;;;4.00;4.00;;;;;20.36;33.93;101692.22;5096976;27;45420;-52
2021/11/24 09:30:14;;;;;;;;;4.75;4.75;;;;;20.36;33.63;101690.44;5097222;27;45511;-54
2021/11/24 09:32:41;;;;;;;;;6.25;5.00;;;;;20.34;33.93;101700.16;5096986;27;45298;-57
2021/11/24 09:35:08;;;;;;;;;5.50;5.50;;;;;20.32;33.42;101691.50;5096766;27;45276;-48
2021/11/24 09:37:33;;;;;;;;;9.50;6.50;;;;;20.34;33.54;101699.31;5096966;27;45436;-54
2021/11/24 09:40:00;;;;;;;;;8.00;8.00;;;;;20.34;33.88;101694.06;5097093;27;45547;-58
2021/11/24 09:42:28;;;;;;;;;7.00;7.00;;;;;20.32;33.85;101683.59;5096546;27;47012;-50
2021/11/24 09:44:56;;;;;;;;;7.25;5.00;;;;;20.31;33.68;101679.25;5096831;27;45723;-54
2021/11/24 09:47:25;;;;;;;;;6.00;6.00;;;;;20.30;33.30;101676.66;5096781;27;45429;-60
2021/11/24 09:49:56;;;;;;;;;5.00;5.00;;;;;20.31;33.41;101687.16;5097100;27;45547;-58
2021/11/24 09:52:23;;;;;;;;;6.75;6.25;;;;;20.30;33.30;101682.81;5098863;27;46629;-53
2021/11/24 09:54:49;;;;;;;;;6.25;6.25;;;;;20.28;33.42;101681.16;5100255;27;45905;-52
2021/11/24 09:57:20;;;;;;;;;6.00;6.00;;;;;20.27;33.67;101682.91;5100635;27;45369;-53
2021/11/24 09:59:46;;;;;;;;;7.25;7.00;;;;;20.25;33.09;101679.47;5100862;27;45473;-57
2021/11/24 10:02:13;;;;;;;;;9.75;7.50;;;;;20.23;33.49;101678.69;5100011;27;46394;-53
2021/11/24 10:04:41;;;;;;;;;7.75;7.25;;;;;20.22;33.72;101679.63;5100216;27;45826;-54
2021/11/24 10:07:11;;;;;;;;;7.00;6.75;;;;;20.20;33.72;101684.94;5099999;27;45173;-52
2021/11/24 10:09:37;;;;;;;;;7.00;7.00;;;;;20.18;33.65;101672.78;5100364;27;45593;-50
2021/11/24 10:12:02;;;;;;;;;10.00;5.50;;;;;20.19;33.71;101679.75;5100035;27;45278;-47
2021/11/24 10:14:28;;;;;;;;;8.75;6.25;;;;;20.17;34.18;101676.31;5100006;27;45357;-48
2021/11/24 10:17:04;;;;;;;;;7.50;6.25;;;;;20.15;34.12;101673.75;5098828;27;45331;-55
2021/11/24 10:19:29;;;;;;;;;7.50;7.00;;;;;20.16;34.25;101674.59;5100342;27;45321;-54
2021/11/24 10:21:57;;;;;;;;;7.25;6.75;;;;;20.15;34.65;101667.63;5099539;27;46147;-53
2021/11/24 10:24:32;;;;;;;;;7.00;7.00;;;;;20.15;34.17;101659.72;5099751;27;45306;-56
2021/11/24 10:26:58;;;;;;;;;7.25;7.25;;;;;20.12;34.81;101646.72;5100007;27;45314;-50
2021/11/24 10:29:24;;;;;;;;;7.75;7.50;;;;;20.11;34.55;101648.47;5100212;27;45387;-53
2021/11/24 10:31:56;;;;;;;;;10.00;9.00;;;;;20.12;35.09;101649.34;5098859;27;46469;-49
2021/11/24 10:34:24;;;;;;;;;7.50;6.00;;;;;20.13;34.58;101645.75;5099845;27;45818;-55
2021/11/24 10:36:49;;;;;;;;;9.00;7.50;;;;;20.13;34.78;101640.50;5099977;27;45397;-52
2021/11/24 10:39:14;;;;;;;;;8.33;8.00;;;;;20.13;35.08;101637.88;5100066;27;45304;-59
2021/11/24 10:41:40;;;;;;;;;8.00;6.00;;;;;20.13;35.28;101637.88;5098144;27;46769;-57
2021/11/24 10:44:07;;;;;;;;;8.25;8.25;;;;;20.12;35.46;101629.13;5098986;27;45285;-56
2021/11/24 10:46:35;;;;;;;;;8.25;7.50;;;;;20.14;35.66;101629.06;5107156;27;45489;-58
2021/11/24 10:49:09;;;;;;;;;8.25;7.25;;;;;20.13;35.70;101622.94;5120309;27;45369;-59
2021/11/24 10:51:39;;;;;;;;;10.25;8.75;;;;;20.15;35.82;101621.13;5119704;27;45314;-58
2021/11/24 10:54:14;;;;;;;;;6.00;6.00;;;;;20.18;35.84;101622.75;5120175;27;45345;-59
2021/11/24 10:56:59;;;;;;;;;9.50;8.25;;;;;20.18;36.19;101602.53;5119907;27;45442;-52
2021/11/24 10:59:25;;;;;;;;;7.75;6.25;;;;;20.19;36.08;101600.78;5101136;27;45354;-54
2021/11/24 11:01:52;;;;;;;;;6.25;6.00;;;;;20.19;36.24;101600.78;5119408;27;45269;-56
2021/11/24 11:04:17;;;;;;;;;9.00;7.00;;;;;20.20;35.97;101592.81;5117579;27;45332;-57
2021/11/24 11:06:42;;;;;;;;;7.00;7.00;;;;;20.21;36.32;101589.25;5118301;27;45356;-50
2021/11/24 11:09:09;;;;;;;;;7.75;6.50;;;;;20.24;36.83;101589.16;5080766;27;45236;-55
2021/11/24 11:11:39;;;;;;;;;9.75;6.75;;;;;20.26;36.38;101582.97;5098460;27;45646;-58
2021/11/24 11:14:19;;;;;;;;;6.00;5.00;;;;;20.24;36.92;101575.09;5080038;27;45273;-59
2021/11/24 11:16:56;;;;;;;;;7.75;7.75;;;;;20.25;36.92;101568.94;5098822;27;45460;-56
2021/11/24 11:19:40;;;;;;;;;7.00;7.00;;;;;20.25;37.04;101558.41;5099052;27;45406;-56
2021/11/24 11:22:08;;;;;;;;;8.25;6.50;;;;;20.26;36.56;101559.28;5098554;27;46702;-60